TAF MPSM
MPSM 261700Z 2618/2724 32006KT 9999 SCT018 SCT090 PROB30 2619/2623 16005KT 7000 TSRA SCT015CB BKN070 TEMPO 2708/2712 VRB02KT=
METAR MPSM
MPSM 270100Z 34005KT 9999 FEW030 SCT090 24/23 Q1010=
MPSM 262100Z 01004KT 8000 VCSH FEW016 SCT060 28/23 Q1009=
MPSM 262000Z 01006KT 8000 VCSH FEW015 SCT030 SCT080 28/23 Q1009=
MPSM 261900Z 33006KT 9999 FEW030 BKN100 28/23 Q1010=
MPSM 261800Z 34006KT 9999 FEW025 BKN100 27/23 Q1011=
WC MPSM
WS MPSM
WV MPSM